sensor_id;sensor_type;location;lat;lon;timestamp;temperature;humidity
40153;DHT22;26371;56.992;23.912;2023-05-07T00:01:14;1.40;99.90
40153;DHT22;26371;56.992;23.912;2023-05-07T00:03:45;1.30;99.90
40153;DHT22;26371;56.992;23.912;2023-05-07T00:06:14;1.30;99.90
40153;DHT22;26371;56.992;23.912;2023-05-07T00:08:43;1.40;99.90
40153;DHT22;26371;56.992;23.912;2023-05-07T00:11:12;1.30;99.90
40153;DHT22;26371;56.992;23.912;2023-05-07T00:13:40;1.40;99.90
40153;DHT22;26371;56.992;23.912;2023-05-07T00:16:08;1.40;99.90
40153;DHT22;26371;56.992;23.912;2023-05-07T00:18:37;1.40;99.90
40153;DHT22;26371;56.992;23.912;2023-05-07T00:21:05;1.40;99.90
40153;DHT22;26371;56.992;23.912;2023-05-07T00:23:33;1.40;99.90
40153;DHT22;26371;56.992;23.912;2023-05-07T00:26:03;1.40;99.90
40153;DHT22;26371;56.992;23.912;2023-05-07T00:28:31;1.40;99.90
40153;DHT22;26371;56.992;23.912;2023-05-07T00:30:59;1.40;99.90
40153;DHT22;26371;56.992;23.912;2023-05-07T00:33:27;1.40;99.90
40153;DHT22;26371;56.992;23.912;2023-05-07T00:35:56;1.40;99.90
40153;DHT22;26371;56.992;23.912;2023-05-07T00:38:24;1.40;99.90
40153;DHT22;26371;56.992;23.912;2023-05-07T00:40:52;1.50;99.90
40153;DHT22;26371;56.992;23.912;2023-05-07T00:43:22;1.50;99.90
40153;DHT22;26371;56.992;23.912;2023-05-07T00:45:50;1.50;99.90
40153;DHT22;26371;56.992;23.912;2023-05-07T00:48:19;1.50;99.90
40153;DHT22;26371;56.992;23.912;2023-05-07T00:50:47;1.50;99.90
40153;DHT22;26371;56.992;23.912;2023-05-07T00:53:15;1.60;99.90
40153;DHT22;26371;56.992;23.912;2023-05-07T00:55:44;1.60;99.90
40153;DHT22;26371;56.992;23.912;2023-05-07T00:58:12;1.60;99.90
40153;DHT22;26371;56.992;23.912;2023-05-07T01:00:42;1.60;99.90
40153;DHT22;26371;56.992;23.912;2023-05-07T01:03:10;1.70;99.90
40153;DHT22;26371;56.992;23.912;2023-05-07T01:05:39;1.60;99.90
40153;DHT22;26371;56.992;23.912;2023-05-07T01:08:08;1.70;99.90
40153;DHT22;26371;56.992;23.912;2023-05-07T01:10:37;1.70;99.90
40153;DHT22;26371;56.992;23.912;2023-05-07T01:13:09;1.70;99.90
40153;DHT22;26371;56.992;23.912;2023-05-07T01:15:38;1.70;99.90
40153;DHT22;26371;56.992;23.912;2023-05-07T01:18:09;1.70;99.90
40153;DHT22;26371;56.992;23.912;2023-05-07T01:20:38;1.80;99.90
40153;DHT22;26371;56.992;23.912;2023-05-07T01:23:08;1.80;99.90
40153;DHT22;26371;56.992;23.912;2023-05-07T01:25:37;1.80;99.90
40153;DHT22;26371;56.992;23.912;2023-05-07T01:28:07;1.80;99.90
40153;DHT22;26371;56.992;23.912;2023-05-07T01:30:37;1.80;99.90
40153;DHT22;26371;56.992;23.912;2023-05-07T01:33:08;1.80;99.90
40153;DHT22;26371;56.992;23.912;2023-05-07T01:35:38;1.80;99.90
40153;DHT22;26371;56.992;23.912;2023-05-07T01:38:08;1.80;99.90
40153;DHT22;26371;56.992;23.912;2023-05-07T01:40:37;1.80;99.90
40153;DHT22;26371;56.992;23.912;2023-05-07T01:43:05;1.80;99.90
40153;DHT22;26371;56.992;23.912;2023-05-07T01:45:35;1.80;99.90
40153;DHT22;26371;56.992;23.912;2023-05-07T01:48:04;1.80;99.90
40153;DHT22;26371;56.992;23.912;2023-05-07T01:50:32;1.80;99.90
40153;DHT22;26371;56.992;23.912;2023-05-07T01:53:01;1.80;99.90
40153;DHT22;26371;56.992;23.912;2023-05-07T01:55:31;1.80;99.90
40153;DHT22;26371;56.992;23.912;2023-05-07T01:58:00;1.70;99.90
40153;DHT22;26371;56.992;23.912;2023-05-07T02:00:28;1.70;99.90
40153;DHT22;26371;56.992;23.912;2023-05-07T02:02:57;1.70;99.90
40153;DHT22;26371;56.992;23.912;2023-05-07T02:05:34;1.60;99.90
40153;DHT22;26371;56.992;23.912;2023-05-07T02:08:09;1.60;99.90
40153;DHT22;26371;56.992;23.912;2023-05-07T02:10:38;1.60;99.90
40153;DHT22;26371;56.992;23.912;2023-05-07T02:13:07;1.60;99.90
40153;DHT22;26371;56.992;23.912;2023-05-07T02:15:35;1.60;99.90
40153;DHT22;26371;56.992;23.912;2023-05-07T02:18:04;1.60;99.90
40153;DHT22;26371;56.992;23.912;2023-05-07T02:20:33;1.60;99.90
40153;DHT22;26371;56.992;23.912;2023-05-07T02:23:02;1.60;99.90
40153;DHT22;26371;56.992;23.912;2023-05-07T02:25:30;1.60;99.90
40153;DHT22;26371;56.992;23.912;2023-05-07T02:28:00;1.60;99.90
40153;DHT22;26371;56.992;23.912;2023-05-07T02:30:42;1.70;99.90
40153;DHT22;26371;56.992;23.912;2023-05-07T02:33:11;1.70;99.90
40153;DHT22;26371;56.992;23.912;2023-05-07T02:35:41;1.70;99.90
40153;DHT22;26371;56.992;23.912;2023-05-07T02:38:11;1.70;99.90
40153;DHT22;26371;56.992;23.912;2023-05-07T02:40:40;1.70;99.90
40153;DHT22;26371;56.992;23.912;2023-05-07T02:43:10;1.70;99.90
40153;DHT22;26371;56.992;23.912;2023-05-07T02:45:42;1.70;99.90
40153;DHT22;26371;56.992;23.912;2023-05-07T02:48:12;1.70;99.90
40153;DHT22;26371;56.992;23.912;2023-05-07T02:50:40;1.70;99.90
40153;DHT22;26371;56.992;23.912;2023-05-07T02:53:10;1.80;99.90
40153;DHT22;26371;56.992;23.912;2023-05-07T02:55:38;1.80;99.90
40153;DHT22;26371;56.992;23.912;2023-05-07T02:58:06;1.80;99.90
40153;DHT22;26371;56.992;23.912;2023-05-07T03:00:38;1.80;99.90
40153;DHT22;26371;56.992;23.912;2023-05-07T03:03:17;1.90;99.90
40153;DHT22;26371;56.992;23.912;2023-05-07T03:05:46;1.90;99.90
40153;DHT22;26371;56.992;23.912;2023-05-07T03:08:14;1.90;99.90
40153;DHT22;26371;56.992;23.912;2023-05-07T03:10:42;1.90;99.90
40153;DHT22;26371;56.992;23.912;2023-05-07T03:13:10;2.00;99.90
40153;DHT22;26371;56.992;23.912;2023-05-07T03:15:40;2.00;99.90
40153;DHT22;26371;56.992;23.912;2023-05-07T03:18:09;2.00;99.90
40153;DHT22;26371;56.992;23.912;2023-05-07T03:20:37;2.10;99.90
40153;DHT22;26371;56.992;23.912;2023-05-07T03:23:06;2.10;99.90
40153;DHT22;26371;56.992;23.912;2023-05-07T03:25:34;2.10;99.90
40153;DHT22;26371;56.992;23.912;2023-05-07T03:28:02;2.20;99.90
40153;DHT22;26371;56.992;23.912;2023-05-07T03:30:41;2.20;99.90
40153;DHT22;26371;56.992;23.912;2023-05-07T03:33:10;2.20;99.90
40153;DHT22;26371;56.992;23.912;2023-05-07T03:35:38;2.20;99.90
40153;DHT22;26371;56.992;23.912;2023-05-07T03:38:07;2.30;99.90
40153;DHT22;26371;56.992;23.912;2023-05-07T03:40:37;2.30;99.90
40153;DHT22;26371;56.992;23.912;2023-05-07T03:43:05;2.40;99.90
40153;DHT22;26371;56.992;23.912;2023-05-07T03:45:36;2.50;99.90
40153;DHT22;26371;56.992;23.912;2023-05-07T03:48:27;2.60;99.90
40153;DHT22;26371;56.992;23.912;2023-05-07T03:50:57;2.70;99.90
40153;DHT22;26371;56.992;23.912;2023-05-07T03:53:29;2.90;99.90
40153;DHT22;26371;56.992;23.912;2023-05-07T03:55:58;3.00;99.90
40153;DHT22;26371;56.992;23.912;2023-05-07T03:58:29;3.10;99.90
40153;DHT22;26371;56.992;23.912;2023-05-07T04:01:02;3.20;99.90
40153;DHT22;26371;56.992;23.912;2023-05-07T04:03:32;3.30;99.90
40153;DHT22;26371;56.992;23.912;2023-05-07T04:06:01;3.40;99.90
40153;DHT22;26371;56.992;23.912;2023-05-07T04:08:31;3.40;99.90
40153;DHT22;26371;56.992;23.912;2023-05-07T04:11:00;3.50;99.90
40153;DHT22;26371;56.992;23.912;2023-05-07T04:13:31;3.50;99.90
40153;DHT22;26371;56.992;23.912;2023-05-07T04:16:01;3.60;99.90
40153;DHT22;26371;56.992;23.912;2023-05-07T04:18:32;3.60;99.90
40153;DHT22;26371;56.992;23.912;2023-05-07T04:21:00;3.70;99.90
40153;DHT22;26371;56.992;23.912;2023-05-07T04:23:29;3.80;99.90
40153;DHT22;26371;56.992;23.912;2023-05-07T04:26:01;3.80;99.90
40153;DHT22;26371;56.992;23.912;2023-05-07T04:28:35;3.80;99.90
40153;DHT22;26371;56.992;23.912;2023-05-07T04:31:04;3.90;99.90
40153;DHT22;26371;56.992;23.912;2023-05-07T04:33:36;4.00;99.90
40153;DHT22;26371;56.992;23.912;2023-05-07T04:36:07;4.00;99.90
40153;DHT22;26371;56.992;23.912;2023-05-07T04:38:42;4.10;99.90
40153;DHT22;26371;56.992;23.912;2023-05-07T04:41:12;4.10;99.90
40153;DHT22;26371;56.992;23.912;2023-05-07T04:43:41;4.10;99.90
40153;DHT22;26371;56.992;23.912;2023-05-07T04:46:11;4.20;99.90
40153;DHT22;26371;56.992;23.912;2023-05-07T04:48:42;4.30;99.90
40153;DHT22;26371;56.992;23.912;2023-05-07T04:51:10;4.30;99.90
40153;DHT22;26371;56.992;23.912;2023-05-07T04:53:39;4.40;99.50
40153;DHT22;26371;56.992;23.912;2023-05-07T04:56:08;4.40;98.90
40153;DHT22;26371;56.992;23.912;2023-05-07T04:58:42;4.50;98.60
40153;DHT22;26371;56.992;23.912;2023-05-07T05:01:11;4.60;98.70
40153;DHT22;26371;56.992;23.912;2023-05-07T05:03:42;4.60;98.70
40153;DHT22;26371;56.992;23.912;2023-05-07T05:06:11;4.70;98.80
40153;DHT22;26371;56.992;23.912;2023-05-07T05:08:39;4.70;98.70
40153;DHT22;26371;56.992;23.912;2023-05-07T05:11:09;4.80;98.70
40153;DHT22;26371;56.992;23.912;2023-05-07T05:13:38;4.80;98.30
40153;DHT22;26371;56.992;23.912;2023-05-07T05:16:15;4.90;98.10
40153;DHT22;26371;56.992;23.912;2023-05-07T05:18:45;5.00;98.20
40153;DHT22;26371;56.992;23.912;2023-05-07T05:21:16;5.10;98.10
40153;DHT22;26371;56.992;23.912;2023-05-07T05:23:47;5.20;97.70
40153;DHT22;26371;56.992;23.912;2023-05-07T05:28:50;5.30;99.90
40153;DHT22;26371;56.992;23.912;2023-05-07T05:31:20;5.50;99.90
40153;DHT22;26371;56.992;23.912;2023-05-07T05:33:52;5.60;97.10
40153;DHT22;26371;56.992;23.912;2023-05-07T05:36:20;5.80;97.20
40153;DHT22;26371;56.992;23.912;2023-05-07T05:38:52;5.90;96.10
40153;DHT22;26371;56.992;23.912;2023-05-07T05:41:24;6.10;95.60
40153;DHT22;26371;56.992;23.912;2023-05-07T05:43:53;6.10;95.80
40153;DHT22;26371;56.992;23.912;2023-05-07T05:46:21;6.30;95.80
40153;DHT22;26371;56.992;23.912;2023-05-07T05:48:52;6.40;94.80
40153;DHT22;26371;56.992;23.912;2023-05-07T05:51:20;6.50;94.90
40153;DHT22;26371;56.992;23.912;2023-05-07T05:53:49;6.60;94.80
40153;DHT22;26371;56.992;23.912;2023-05-07T05:56:19;6.70;94.90
40153;DHT22;26371;56.992;23.912;2023-05-07T05:58:48;6.90;94.70
40153;DHT22;26371;56.992;23.912;2023-05-07T06:01:17;7.00;93.70
40153;DHT22;26371;56.992;23.912;2023-05-07T06:03:46;7.10;93.80
40153;DHT22;26371;56.992;23.912;2023-05-07T06:06:16;7.20;94.40
40153;DHT22;26371;56.992;23.912;2023-05-07T06:08:45;7.30;94.00
40153;DHT22;26371;56.992;23.912;2023-05-07T06:11:19;7.40;94.10
40153;DHT22;26371;56.992;23.912;2023-05-07T06:13:47;7.60;92.50
40153;DHT22;26371;56.992;23.912;2023-05-07T06:16:15;7.60;92.40
40153;DHT22;26371;56.992;23.912;2023-05-07T06:18:44;7.80;91.70
40153;DHT22;26371;56.992;23.912;2023-05-07T06:21:15;7.90;91.70
40153;DHT22;26371;56.992;23.912;2023-05-07T06:23:44;8.00;92.40
40153;DHT22;26371;56.992;23.912;2023-05-07T06:26:13;8.00;91.30
40153;DHT22;26371;56.992;23.912;2023-05-07T06:28:45;8.20;90.00
40153;DHT22;26371;56.992;23.912;2023-05-07T06:31:16;8.20;87.90
40153;DHT22;26371;56.992;23.912;2023-05-07T06:33:50;8.30;90.10
40153;DHT22;26371;56.992;23.912;2023-05-07T06:36:22;8.40;87.60
40153;DHT22;26371;56.992;23.912;2023-05-07T06:38:56;8.50;90.20
40153;DHT22;26371;56.992;23.912;2023-05-07T06:41:24;8.60;90.20
40153;DHT22;26371;56.992;23.912;2023-05-07T06:43:56;8.60;88.90
40153;DHT22;26371;56.992;23.912;2023-05-07T06:46:32;8.70;90.30
40153;DHT22;26371;56.992;23.912;2023-05-07T06:49:00;8.70;90.70
40153;DHT22;26371;56.992;23.912;2023-05-07T06:51:30;8.70;91.90
40153;DHT22;26371;56.992;23.912;2023-05-07T06:54:03;8.70;90.10
40153;DHT22;26371;56.992;23.912;2023-05-07T06:56:34;8.80;90.30
40153;DHT22;26371;56.992;23.912;2023-05-07T06:59:04;8.80;90.30
40153;DHT22;26371;56.992;23.912;2023-05-07T07:01:36;8.80;90.70
40153;DHT22;26371;56.992;23.912;2023-05-07T07:04:06;8.80;92.20
40153;DHT22;26371;56.992;23.912;2023-05-07T07:06:36;8.80;92.40
40153;DHT22;26371;56.992;23.912;2023-05-07T07:09:10;8.80;91.50
40153;DHT22;26371;56.992;23.912;2023-05-07T07:11:39;8.80;92.10
40153;DHT22;26371;56.992;23.912;2023-05-07T07:14:07;8.80;91.30
40153;DHT22;26371;56.992;23.912;2023-05-07T07:16:43;8.90;91.20
40153;DHT22;26371;56.992;23.912;2023-05-07T07:19:15;8.90;90.50
40153;DHT22;26371;56.992;23.912;2023-05-07T07:21:46;8.90;90.50
40153;DHT22;26371;56.992;23.912;2023-05-07T07:24:16;8.90;91.10
40153;DHT22;26371;56.992;23.912;2023-05-07T07:26:52;9.00;90.80
40153;DHT22;26371;56.992;23.912;2023-05-07T07:29:23;9.00;91.10
40153;DHT22;26371;56.992;23.912;2023-05-07T07:31:53;9.00;92.20
40153;DHT22;26371;56.992;23.912;2023-05-07T07:34:22;8.90;91.80
40153;DHT22;26371;56.992;23.912;2023-05-07T07:36:51;9.00;93.10
40153;DHT22;26371;56.992;23.912;2023-05-07T07:39:21;8.90;94.10
40153;DHT22;26371;56.992;23.912;2023-05-07T07:41:52;8.90;93.80
40153;DHT22;26371;56.992;23.912;2023-05-07T07:44:21;8.90;94.00
40153;DHT22;26371;56.992;23.912;2023-05-07T07:46:55;8.90;93.90
40153;DHT22;26371;56.992;23.912;2023-05-07T07:49:25;8.90;95.80
40153;DHT22;26371;56.992;23.912;2023-05-07T07:51:55;8.80;97.00
40153;DHT22;26371;56.992;23.912;2023-05-07T07:54:28;8.70;96.20
40153;DHT22;26371;56.992;23.912;2023-05-07T07:56:58;8.80;95.40
40153;DHT22;26371;56.992;23.912;2023-05-07T07:59:27;8.80;96.70
40153;DHT22;26371;56.992;23.912;2023-05-07T08:01:56;9.00;96.80
40153;DHT22;26371;56.992;23.912;2023-05-07T08:04:26;9.10;95.00
40153;DHT22;26371;56.992;23.912;2023-05-07T08:06:57;9.20;94.90
40153;DHT22;26371;56.992;23.912;2023-05-07T08:09:25;9.20;94.70
40153;DHT22;26371;56.992;23.912;2023-05-07T08:11:57;9.20;94.00
40153;DHT22;26371;56.992;23.912;2023-05-07T08:14:25;9.30;94.70
40153;DHT22;26371;56.992;23.912;2023-05-07T08:16:56;9.30;91.70
40153;DHT22;26371;56.992;23.912;2023-05-07T08:19:24;9.40;92.00
40153;DHT22;26371;56.992;23.912;2023-05-07T08:21:53;9.40;90.80
40153;DHT22;26371;56.992;23.912;2023-05-07T08:24:23;9.40;91.60
40153;DHT22;26371;56.992;23.912;2023-05-07T08:26:52;9.50;92.00
40153;DHT22;26371;56.992;23.912;2023-05-07T08:29:22;9.70;94.50
40153;DHT22;26371;56.992;23.912;2023-05-07T08:31:51;9.60;91.50
40153;DHT22;26371;56.992;23.912;2023-05-07T08:34:20;9.60;91.30
40153;DHT22;26371;56.992;23.912;2023-05-07T08:36:51;9.40;90.90
40153;DHT22;26371;56.992;23.912;2023-05-07T08:39:22;9.50;90.50
40153;DHT22;26371;56.992;23.912;2023-05-07T08:41:53;9.50;90.60
40153;DHT22;26371;56.992;23.912;2023-05-07T08:44:25;9.70;90.00
40153;DHT22;26371;56.992;23.912;2023-05-07T08:46:56;9.70;90.30
40153;DHT22;26371;56.992;23.912;2023-05-07T08:49:25;9.70;91.00
40153;DHT22;26371;56.992;23.912;2023-05-07T08:51:54;9.70;92.00
40153;DHT22;26371;56.992;23.912;2023-05-07T08:54:24;9.80;91.60
40153;DHT22;26371;56.992;23.912;2023-05-07T08:56:53;9.80;89.70
40153;DHT22;26371;56.992;23.912;2023-05-07T08:59:22;9.80;90.00
40153;DHT22;26371;56.992;23.912;2023-05-07T09:01:53;9.90;90.20
40153;DHT22;26371;56.992;23.912;2023-05-07T09:04:21;10.00;90.30
40153;DHT22;26371;56.992;23.912;2023-05-07T09:06:49;10.20;96.00
40153;DHT22;26371;56.992;23.912;2023-05-07T09:09:21;9.90;90.40
40153;DHT22;26371;56.992;23.912;2023-05-07T09:11:56;9.90;89.90
40153;DHT22;26371;56.992;23.912;2023-05-07T09:14:27;9.80;89.60
40153;DHT22;26371;56.992;23.912;2023-05-07T09:16:57;9.90;90.60
40153;DHT22;26371;56.992;23.912;2023-05-07T09:19:26;10.00;92.30
40153;DHT22;26371;56.992;23.912;2023-05-07T09:22:00;10.00;93.10
40153;DHT22;26371;56.992;23.912;2023-05-07T09:24:36;10.00;94.20
40153;DHT22;26371;56.992;23.912;2023-05-07T09:27:07;9.90;93.80
40153;DHT22;26371;56.992;23.912;2023-05-07T09:29:43;9.80;93.10
40153;DHT22;26371;56.992;23.912;2023-05-07T09:32:15;9.80;93.50
40153;DHT22;26371;56.992;23.912;2023-05-07T09:34:44;9.90;92.30
40153;DHT22;26371;56.992;23.912;2023-05-07T09:37:16;9.90;93.10
40153;DHT22;26371;56.992;23.912;2023-05-07T09:39:46;10.00;93.30
40153;DHT22;26371;56.992;23.912;2023-05-07T09:42:22;10.00;92.60
40153;DHT22;26371;56.992;23.912;2023-05-07T09:44:52;10.00;93.10
40153;DHT22;26371;56.992;23.912;2023-05-07T09:47:25;10.10;93.00
40153;DHT22;26371;56.992;23.912;2023-05-07T09:49:58;10.20;93.40
40153;DHT22;26371;56.992;23.912;2023-05-07T09:52:28;10.40;92.80
40153;DHT22;26371;56.992;23.912;2023-05-07T09:55:02;10.40;92.20
40153;DHT22;26371;56.992;23.912;2023-05-07T09:57:33;10.30;92.00
40153;DHT22;26371;56.992;23.912;2023-05-07T10:00:05;10.20;92.10
40153;DHT22;26371;56.992;23.912;2023-05-07T10:02:49;10.10;92.30
40153;DHT22;26371;56.992;23.912;2023-05-07T10:05:27;10.30;91.90
40153;DHT22;26371;56.992;23.912;2023-05-07T10:07:58;10.20;92.10
40153;DHT22;26371;56.992;23.912;2023-05-07T10:10:32;10.20;92.60
40153;DHT22;26371;56.992;23.912;2023-05-07T10:13:02;10.20;92.00
40153;DHT22;26371;56.992;23.912;2023-05-07T10:15:33;10.20;92.20
40153;DHT22;26371;56.992;23.912;2023-05-07T10:18:04;10.40;92.10
40153;DHT22;26371;56.992;23.912;2023-05-07T10:20:35;10.50;91.20
40153;DHT22;26371;56.992;23.912;2023-05-07T10:23:06;10.60;91.30
40153;DHT22;26371;56.992;23.912;2023-05-07T10:25:41;10.80;91.10
40153;DHT22;26371;56.992;23.912;2023-05-07T10:28:16;10.70;90.60
40153;DHT22;26371;56.992;23.912;2023-05-07T10:30:49;10.70;90.50
40153;DHT22;26371;56.992;23.912;2023-05-07T10:33:24;10.90;89.90
40153;DHT22;26371;56.992;23.912;2023-05-07T10:35:55;10.70;90.30
40153;DHT22;26371;56.992;23.912;2023-05-07T10:38:26;10.70;90.80
40153;DHT22;26371;56.992;23.912;2023-05-07T10:40:55;10.90;90.30
40153;DHT22;26371;56.992;23.912;2023-05-07T10:43:24;11.00;90.20
40153;DHT22;26371;56.992;23.912;2023-05-07T10:46:09;11.20;90.10
40153;DHT22;26371;56.992;23.912;2023-05-07T10:51:42;11.00;88.90
40153;DHT22;26371;56.992;23.912;2023-05-07T10:54:24;10.60;90.30
40153;DHT22;26371;56.992;23.912;2023-05-07T10:57:13;10.60;90.00
40153;DHT22;26371;56.992;23.912;2023-05-07T11:00:40;10.60;90.10
40153;DHT22;26371;56.992;23.912;2023-05-07T11:03:10;10.60;90.00
40153;DHT22;26371;56.992;23.912;2023-05-07T11:05:45;10.60;88.00
40153;DHT22;26371;56.992;23.912;2023-05-07T11:08:27;10.50;87.40
40153;DHT22;26371;56.992;23.912;2023-05-07T11:11:15;10.60;88.10
40153;DHT22;26371;56.992;23.912;2023-05-07T11:13:50;10.70;86.50
40153;DHT22;26371;56.992;23.912;2023-05-07T11:16:38;10.70;88.00
40153;DHT22;26371;56.992;23.912;2023-05-07T11:22:09;11.20;89.00
40153;DHT22;26371;56.992;23.912;2023-05-07T11:25:18;11.40;88.50
40153;DHT22;26371;56.992;23.912;2023-05-07T11:27:53;11.50;87.60
40153;DHT22;26371;56.992;23.912;2023-05-07T11:30:21;11.60;87.10
40153;DHT22;26371;56.992;23.912;2023-05-07T11:32:50;11.60;87.20
40153;DHT22;26371;56.992;23.912;2023-05-07T11:35:18;11.60;89.70
40153;DHT22;26371;56.992;23.912;2023-05-07T11:37:57;11.60;87.60
40153;DHT22;26371;56.992;23.912;2023-05-07T11:40:28;11.70;89.20
40153;DHT22;26371;56.992;23.912;2023-05-07T11:42:56;11.80;87.50
40153;DHT22;26371;56.992;23.912;2023-05-07T11:45:24;11.80;87.80
40153;DHT22;26371;56.992;23.912;2023-05-07T11:47:53;12.10;89.30
40153;DHT22;26371;56.992;23.912;2023-05-07T11:50:21;12.20;88.00
40153;DHT22;26371;56.992;23.912;2023-05-07T11:52:50;12.20;86.80
40153;DHT22;26371;56.992;23.912;2023-05-07T11:55:18;12.20;86.70
40153;DHT22;26371;56.992;23.912;2023-05-07T11:57:48;12.10;88.60
40153;DHT22;26371;56.992;23.912;2023-05-07T12:00:17;12.10;88.10
40153;DHT22;26371;56.992;23.912;2023-05-07T12:02:45;12.00;86.80
40153;DHT22;26371;56.992;23.912;2023-05-07T12:05:14;12.10;87.70
40153;DHT22;26371;56.992;23.912;2023-05-07T12:07:42;12.10;87.30
40153;DHT22;26371;56.992;23.912;2023-05-07T12:10:11;12.10;88.20
40153;DHT22;26371;56.992;23.912;2023-05-07T12:12:39;11.90;86.00
40153;DHT22;26371;56.992;23.912;2023-05-07T12:15:10;11.50;87.50
40153;DHT22;26371;56.992;23.912;2023-05-07T12:17:39;11.30;86.40
40153;DHT22;26371;56.992;23.912;2023-05-07T12:20:08;11.00;86.30
40153;DHT22;26371;56.992;23.912;2023-05-07T12:22:37;10.80;88.30
40153;DHT22;26371;56.992;23.912;2023-05-07T12:25:06;10.70;88.20
40153;DHT22;26371;56.992;23.912;2023-05-07T12:27:36;10.80;89.40
40153;DHT22;26371;56.992;23.912;2023-05-07T12:30:05;10.80;89.80
40153;DHT22;26371;56.992;23.912;2023-05-07T12:32:35;11.00;89.90
40153;DHT22;26371;56.992;23.912;2023-05-07T12:35:05;11.30;88.60
40153;DHT22;26371;56.992;23.912;2023-05-07T12:37:34;11.50;88.30
40153;DHT22;26371;56.992;23.912;2023-05-07T12:40:03;11.60;89.50
40153;DHT22;26371;56.992;23.912;2023-05-07T12:42:33;11.60;90.00
40153;DHT22;26371;56.992;23.912;2023-05-07T12:45:09;11.40;89.60
40153;DHT22;26371;56.992;23.912;2023-05-07T12:47:43;11.20;87.90
40153;DHT22;26371;56.992;23.912;2023-05-07T12:50:11;10.90;88.40
40153;DHT22;26371;56.992;23.912;2023-05-07T12:52:40;10.70;90.00
40153;DHT22;26371;56.992;23.912;2023-05-07T12:55:12;10.60;90.40
40153;DHT22;26371;56.992;23.912;2023-05-07T12:57:42;10.60;90.90
40153;DHT22;26371;56.992;23.912;2023-05-07T13:00:11;10.50;91.90
40153;DHT22;26371;56.992;23.912;2023-05-07T13:02:41;10.40;91.70
40153;DHT22;26371;56.992;23.912;2023-05-07T13:05:11;10.30;91.70
40153;DHT22;26371;56.992;23.912;2023-05-07T13:07:40;10.30;90.90
40153;DHT22;26371;56.992;23.912;2023-05-07T13:10:09;10.40;91.40
40153;DHT22;26371;56.992;23.912;2023-05-07T13:12:37;10.50;91.30
40153;DHT22;26371;56.992;23.912;2023-05-07T13:15:06;10.50;91.70
40153;DHT22;26371;56.992;23.912;2023-05-07T13:17:34;10.60;91.80
40153;DHT22;26371;56.992;23.912;2023-05-07T13:20:05;10.60;91.10
40153;DHT22;26371;56.992;23.912;2023-05-07T13:22:35;10.70;91.60
40153;DHT22;26371;56.992;23.912;2023-05-07T13:25:03;10.80;91.50
40153;DHT22;26371;56.992;23.912;2023-05-07T13:27:32;10.90;91.60
40153;DHT22;26371;56.992;23.912;2023-05-07T13:30:03;11.00;91.80
40153;DHT22;26371;56.992;23.912;2023-05-07T13:32:31;11.10;91.80
40153;DHT22;26371;56.992;23.912;2023-05-07T13:34:59;11.10;90.90
40153;DHT22;26371;56.992;23.912;2023-05-07T13:37:29;11.00;91.50
40153;DHT22;26371;56.992;23.912;2023-05-07T13:39:58;11.10;91.30
40153;DHT22;26371;56.992;23.912;2023-05-07T13:42:26;11.00;91.70
40153;DHT22;26371;56.992;23.912;2023-05-07T13:44:54;11.00;91.80
40153;DHT22;26371;56.992;23.912;2023-05-07T13:47:23;10.90;91.70
40153;DHT22;26371;56.992;23.912;2023-05-07T13:49:51;10.90;92.10
40153;DHT22;26371;56.992;23.912;2023-05-07T13:52:20;11.00;92.20
40153;DHT22;26371;56.992;23.912;2023-05-07T13:54:49;11.10;91.50
40153;DHT22;26371;56.992;23.912;2023-05-07T13:57:19;11.20;92.20
40153;DHT22;26371;56.992;23.912;2023-05-07T13:59:47;11.30;92.30
40153;DHT22;26371;56.992;23.912;2023-05-07T14:02:15;11.10;92.20
40153;DHT22;26371;56.992;23.912;2023-05-07T14:04:44;11.10;92.60
40153;DHT22;26371;56.992;23.912;2023-05-07T14:07:12;11.10;92.60
40153;DHT22;26371;56.992;23.912;2023-05-07T14:09:40;11.10;92.70
40153;DHT22;26371;56.992;23.912;2023-05-07T14:12:10;10.90;93.10
40153;DHT22;26371;56.992;23.912;2023-05-07T14:14:39;10.90;93.30
40153;DHT22;26371;56.992;23.912;2023-05-07T14:17:07;10.90;93.70
40153;DHT22;26371;56.992;23.912;2023-05-07T14:19:36;11.00;93.70
40153;DHT22;26371;56.992;23.912;2023-05-07T14:22:04;11.00;93.70
40153;DHT22;26371;56.992;23.912;2023-05-07T14:24:33;11.10;93.50
40153;DHT22;26371;56.992;23.912;2023-05-07T14:27:04;11.20;92.70
40153;DHT22;26371;56.992;23.912;2023-05-07T14:29:34;11.30;92.90
40153;DHT22;26371;56.992;23.912;2023-05-07T14:32:03;11.30;93.40
40153;DHT22;26371;56.992;23.912;2023-05-07T14:34:32;11.40;93.60
40153;DHT22;26371;56.992;23.912;2023-05-07T14:37:00;11.40;93.60
40153;DHT22;26371;56.992;23.912;2023-05-07T14:39:28;11.30;92.80
40153;DHT22;26371;56.992;23.912;2023-05-07T14:41:57;11.20;93.50
40153;DHT22;26371;56.992;23.912;2023-05-07T14:44:25;11.30;93.60
40153;DHT22;26371;56.992;23.912;2023-05-07T14:46:55;11.30;93.20
40153;DHT22;26371;56.992;23.912;2023-05-07T14:49:28;11.30;93.40
40153;DHT22;26371;56.992;23.912;2023-05-07T14:51:57;11.50;93.30
40153;DHT22;26371;56.992;23.912;2023-05-07T14:54:25;11.50;93.40
40153;DHT22;26371;56.992;23.912;2023-05-07T14:56:53;11.50;93.50
40153;DHT22;26371;56.992;23.912;2023-05-07T14:59:22;11.60;93.50
40153;DHT22;26371;56.992;23.912;2023-05-07T15:01:51;11.50;93.80
40153;DHT22;26371;56.992;23.912;2023-05-07T15:04:21;11.20;93.50
40153;DHT22;26371;56.992;23.912;2023-05-07T15:06:50;10.90;93.90
40153;DHT22;26371;56.992;23.912;2023-05-07T15:09:18;11.00;93.80
40153;DHT22;26371;56.992;23.912;2023-05-07T15:11:47;11.10;94.10
40153;DHT22;26371;56.992;23.912;2023-05-07T15:14:15;11.10;94.00
40153;DHT22;26371;56.992;23.912;2023-05-07T15:16:44;11.20;93.90
40153;DHT22;26371;56.992;23.912;2023-05-07T15:19:12;11.20;94.10
40153;DHT22;26371;56.992;23.912;2023-05-07T15:21:44;11.20;94.10
40153;DHT22;26371;56.992;23.912;2023-05-07T15:24:12;11.20;94.10
40153;DHT22;26371;56.992;23.912;2023-05-07T15:26:41;11.00;94.40
40153;DHT22;26371;56.992;23.912;2023-05-07T15:29:09;11.00;94.30
40153;DHT22;26371;56.992;23.912;2023-05-07T15:31:38;11.10;94.10
40153;DHT22;26371;56.992;23.912;2023-05-07T15:34:06;11.10;93.80
40153;DHT22;26371;56.992;23.912;2023-05-07T15:36:35;11.10;94.20
40153;DHT22;26371;56.992;23.912;2023-05-07T15:39:04;11.10;94.40
40153;DHT22;26371;56.992;23.912;2023-05-07T15:41:33;11.00;94.50
40153;DHT22;26371;56.992;23.912;2023-05-07T15:44:02;10.90;94.70
40153;DHT22;26371;56.992;23.912;2023-05-07T15:46:31;10.70;95.00
40153;DHT22;26371;56.992;23.912;2023-05-07T15:49:00;10.60;95.00
40153;DHT22;26371;56.992;23.912;2023-05-07T15:51:29;10.50;95.10
40153;DHT22;26371;56.992;23.912;2023-05-07T15:53:58;10.20;95.10